Time;durP1;ratioP1;P1;durP2;ratioP2;P2;SDS_P1;SDS_P2;PMS_P1;PMS_P2;Temp;Humidity;BMP_temperature;BMP_pressure;BME280_temperature;BME280_humidity;BME280_pressure;Samples;Min_cycle;Max_cycle;Signal;HPM_P1;HPM_P2
2023/08/14 00:01:43;;;;;;;5.13;3.17;;;;;;;18.87;65.96;94969.88;5097655;28;20210;-76
2023/08/14 00:04:10;;;;;;;4.30;2.95;;;;;;;18.80;66.68;94986.25;5103331;28;20573;-76
2023/08/14 00:06:38;;;;;;;5.40;3.28;;;;;;;18.71;67.69;94977.53;5105998;28;20202;-76
2023/08/14 00:09:05;;;;;;;7.40;3.20;;;;;;;18.52;70.05;94980.31;5107165;28;20210;-76
2023/08/14 00:11:32;;;;;;;5.97;3.20;;;;;;;18.31;71.52;94978.81;5100674;28;20248;-75
2023/08/14 00:13:59;;;;;;;5.15;3.42;;;;;;;18.12;71.35;94987.16;5104559;28;20572;-77
2023/08/14 00:16:26;;;;;;;3.38;2.33;;;;;;;18.18;71.30;94987.66;5107352;28;20539;-78
2023/08/14 00:18:54;;;;;;;4.15;2.67;;;;;;;18.06;71.74;94985.88;5093639;28;20226;-77
2023/08/14 00:21:21;;;;;;;4.88;3.38;;;;;;;17.96;72.31;94986.47;5099232;28;20194;-76
2023/08/14 00:23:50;;;;;;;5.45;3.20;;;;;;;17.91;72.44;94989.50;5106135;28;20553;-76
2023/08/14 00:26:17;;;;;;;4.13;3.20;;;;;;;17.77;73.46;94990.84;5096249;28;20291;-75
2023/08/14 00:28:44;;;;;;;6.07;4.32;;;;;;;17.68;73.92;94989.50;5095926;28;20240;-76
2023/08/14 00:31:11;;;;;;;6.00;4.47;;;;;;;17.66;73.59;94987.13;5102020;28;20198;-76
2023/08/14 00:33:37;;;;;;;3.15;2.78;;;;;;;17.55;74.14;94988.84;5109235;28;20218;-76
2023/08/14 00:36:06;;;;;;;4.78;3.38;;;;;;;17.61;72.76;94995.63;5098742;28;20198;-76
2023/08/14 00:38:33;;;;;;;3.88;2.83;;;;;;;17.65;72.53;94988.28;5099954;28;20206;-76
2023/08/14 00:41:01;;;;;;;4.53;2.83;;;;;;;17.64;72.36;94991.38;5105963;28;20202;-75
2023/08/14 00:43:28;;;;;;;9.13;3.63;;;;;;;17.67;71.99;94996.94;5104141;28;20221;-77
2023/08/14 00:45:56;;;;;;;4.18;2.80;;;;;;;17.68;71.34;94993.03;5101046;28;20786;-76
2023/08/14 00:48:25;;;;;;;3.95;2.78;;;;;;;17.71;70.81;94997.00;5112426;28;20202;-76
2023/08/14 00:50:55;;;;;;;4.82;2.70;;;;;;;17.70;70.52;94998.97;5106442;28;20224;-77
2023/08/14 00:53:24;;;;;;;3.95;2.63;;;;;;;17.72;70.32;94998.59;5096312;28;20219;-76
2023/08/14 00:55:51;;;;;;;4.70;2.97;;;;;;;17.74;70.45;94994.34;5104440;28;20206;-76
2023/08/14 00:58:20;;;;;;;5.70;3.42;;;;;;;17.69;70.18;94989.16;5112473;28;20220;-76
2023/08/14 01:00:47;;;;;;;3.75;3.00;;;;;;;17.68;70.07;94993.03;5108418;28;20210;-76
2023/08/14 01:03:14;;;;;;;3.22;2.53;;;;;;;17.66;70.09;94989.88;5098121;28;20712;-76
2023/08/14 01:05:41;;;;;;;5.47;2.47;;;;;;;17.69;70.46;94991.09;5107508;28;20217;-76
2023/08/14 01:08:08;;;;;;;3.97;2.67;;;;;;;17.65;70.06;94996.50;5110940;28;20250;-76
2023/08/14 01:10:46;;;;;;;3.50;2.40;;;;;;;17.71;69.52;94994.28;5110892;28;20253;-76
2023/08/14 01:13:26;;;;;;;5.60;2.83;;;;;;;17.75;69.21;94989.66;5102811;28;20288;-76
2023/08/14 01:15:58;;;;;;;4.32;2.90;;;;;;;17.72;69.06;94988.44;5112551;28;20205;-76
2023/08/14 01:18:27;;;;;;;5.20;3.08;;;;;;;17.75;68.82;94987.72;5100002;28;20277;-76
2023/08/14 01:21:07;;;;;;;4.75;2.92;;;;;;;17.73;69.18;94995.50;5099480;28;20669;-77
2023/08/14 01:23:49;;;;;;;3.83;2.67;;;;;;;17.73;68.95;94990.00;5102314;28;20239;-77
2023/08/14 01:26:17;;;;;;;3.45;2.63;;;;;;;17.77;68.63;94999.06;5099120;28;20252;-76
2023/08/14 01:28:44;;;;;;;3.17;2.45;;;;;;;17.77;68.56;94988.09;5109228;28;20199;-76
2023/08/14 01:31:11;;;;;;;4.93;3.70;;;;;;;17.75;68.69;94982.22;5104007;28;20248;-76
2023/08/14 01:33:38;;;;;;;4.70;3.92;;;;;;;17.86;68.06;94987.09;5111438;28;20205;-76
2023/08/14 01:36:13;;;;;;;4.10;3.17;;;;;;;17.90;67.35;94987.97;5100505;28;20209;-76
2023/08/14 01:38:50;;;;;;;4.85;3.35;;;;;;;17.95;67.01;94980.22;5109228;28;20253;-75
2023/08/14 01:41:24;;;;;;;4.35;2.28;;;;;;;18.13;65.81;94986.00;5110917;28;20216;-75
2023/08/14 01:43:55;;;;;;;4.80;2.60;;;;;;;18.21;65.49;94982.19;5099495;28;20198;-75
2023/08/14 01:46:24;;;;;;;5.75;2.47;;;;;;;18.28;64.87;94974.09;5103438;28;20190;-75
2023/08/14 01:48:53;;;;;;;3.50;2.30;;;;;;;18.34;64.39;94969.88;5105766;28;20655;-75
2023/08/14 01:51:21;;;;;;;5.13;2.40;;;;;;;18.34;64.11;94969.06;5111960;28;20251;-75
2023/08/14 01:53:48;;;;;;;3.45;2.13;;;;;;;18.38;64.11;94970.72;5099631;28;20230;-76
2023/08/14 01:56:15;;;;;;;2.97;2.05;;;;;;;18.33;63.95;94973.78;5104112;28;20501;-76
2023/08/14 01:58:43;;;;;;;3.47;2.10;;;;;;;18.37;63.89;94969.13;5109740;28;20289;-75
2023/08/14 02:01:10;;;;;;;2.92;2.08;;;;;;;18.39;63.60;94972.31;5105035;28;20206;-76
2023/08/14 02:03:37;;;;;;;4.00;2.25;;;;;;;18.38;63.80;94976.22;5101631;28;20232;-77
2023/08/14 02:06:04;;;;;;;3.67;2.35;;;;;;;18.32;63.69;94966.69;5106130;28;20542;-77
2023/08/14 02:08:31;;;;;;;3.10;2.13;;;;;;;18.30;63.99;94969.03;5108696;28;20216;-76
2023/08/14 02:10:58;;;;;;;6.43;2.72;;;;;;;18.18;64.66;94971.97;5106213;28;20202;-76
2023/08/14 02:13:24;;;;;;;3.65;2.53;;;;;;;18.07;64.64;94963.56;5103501;28;20213;-75
2023/08/14 02:15:52;;;;;;;5.28;2.40;;;;;;;18.05;65.27;94970.56;5108950;28;20225;-75
2023/08/14 02:18:19;;;;;;;3.35;2.53;;;;;;;17.96;65.51;94970.03;5099167;28;20591;-75
2023/08/14 02:20:47;;;;;;;3.50;2.47;;;;;;;17.93;65.79;94970.75;5098518;28;20194;-75
2023/08/14 02:23:14;;;;;;;3.67;2.00;;;;;;;17.89;66.05;94975.41;5108838;28;20213;-75
2023/08/14 02:25:41;;;;;;;6.22;2.67;;;;;;;17.86;66.13;94976.94;5110550;28;20282;-76
2023/08/14 02:28:09;;;;;;;4.60;2.35;;;;;;;17.77;66.54;94974.41;5100388;28;20206;-76
2023/08/14 02:30:37;;;;;;;4.38;2.55;;;;;;;17.74;66.75;94975.16;5109075;28;20206;-78
2023/08/14 02:33:06;;;;;;;3.75;2.28;;;;;;;17.61;67.18;94976.47;5107477;28;20197;-75
2023/08/14 02:35:34;;;;;;;3.75;2.50;;;;;;;17.55;67.43;94977.91;5110962;28;20249;-75
2023/08/14 02:38:02;;;;;;;3.45;2.25;;;;;;;17.48;67.84;94977.78;5099973;28;20204;-75
2023/08/14 02:40:29;;;;;;;3.22;2.10;;;;;;;17.45;68.05;94973.03;5109919;28;20201;-76
2023/08/14 02:43:01;;;;;;;3.53;2.10;;;;;;;17.38;68.04;94979.13;5106434;28;20202;-75
2023/08/14 02:45:28;;;;;;;7.68;2.63;;;;;;;17.38;68.29;94983.81;5106754;28;20221;-75
2023/08/14 02:47:55;;;;;;;3.67;2.65;;;;;;;17.35;68.27;94979.09;5104212;28;20209;-76
2023/08/14 02:50:23;;;;;;;3.35;2.17;;;;;;;17.32;68.41;94979.81;5094439;28;20564;-75
2023/08/14 02:52:50;;;;;;;3.67;2.40;;;;;;;17.27;68.66;94980.09;5107363;28;20571;-75
2023/08/14 02:55:17;;;;;;;4.70;2.30;;;;;;;17.19;68.98;94970.94;5096377;28;20226;-75
2023/08/14 02:57:44;;;;;;;3.30;2.53;;;;;;;17.17;68.99;94977.94;5109760;28;20209;-75
2023/08/14 03:00:11;;;;;;;3.45;2.55;;;;;;;17.13;69.23;94985.28;5109722;28;20335;-75
2023/08/14 03:02:38;;;;;;;4.70;2.60;;;;;;;17.13;69.40;94988.00;5096974;28;20581;-76
2023/08/14 03:05:05;;;;;;;3.70;2.50;;;;;;;17.11;69.39;94984.84;5098721;28;20198;-76
2023/08/14 03:07:34;;;;;;;3.30;2.20;;;;;;;17.11;69.39;94982.09;5109958;28;20204;-75
2023/08/14 03:10:01;;;;;;;5.55;2.35;;;;;;;17.07;69.44;94984.00;5109827;28;20209;-75
2023/08/14 03:12:27;;;;;;;6.30;2.40;;;;;;;17.02;69.69;94985.84;5109772;28;20236;-75
2023/08/14 03:14:54;;;;;;;2.28;1.92;;;;;;;16.95;69.64;94988.44;5104332;28;20315;-76
2023/08/14 03:17:21;;;;;;;3.65;2.45;;;;;;;16.82;70.62;94989.72;5102266;28;20205;-76
2023/08/14 03:19:48;;;;;;;4.20;2.80;;;;;;;16.77;71.92;94992.75;5101308;28;20309;-76
2023/08/14 03:22:15;;;;;;;5.18;3.20;;;;;;;16.56;74.14;95003.97;5104503;28;20562;-76
2023/08/14 03:24:43;;;;;;;5.53;3.13;;;;;;;16.51;75.48;95007.00;5104952;28;20237;-76
2023/08/14 03:27:09;;;;;;;4.55;2.97;;;;;;;16.42;76.11;95011.03;5099583;28;20550;-76
2023/08/14 03:29:36;;;;;;;3.80;3.10;;;;;;;16.40;76.96;95002.44;5103290;28;20269;-76
2023/08/14 03:32:03;;;;;;;5.78;3.55;;;;;;;16.30;78.08;95007.28;5106402;28;20205;-76
2023/08/14 03:34:30;;;;;;;4.18;3.33;;;;;;;16.16;79.29;94998.72;5108763;28;20229;-77
2023/08/14 03:36:57;;;;;;;6.65;3.50;;;;;;;16.17;79.38;95007.72;5099812;28;20552;-78
2023/08/14 03:39:24;;;;;;;4.18;3.28;;;;;;;16.12;80.09;95006.06;5105388;28;20208;-76
2023/08/14 03:41:52;;;;;;;5.78;3.95;;;;;;;16.30;80.15;95012.75;5109694;28;20207;-76
2023/08/14 03:44:19;;;;;;;6.47;3.42;;;;;;;16.75;78.10;95011.47;5098434;28;20202;-76
2023/08/14 03:46:46;;;;;;;4.47;3.53;;;;;;;16.97;76.66;95002.56;5098647;28;20232;-77
2023/08/14 03:49:13;;;;;;;16.63;8.40;;;;;;;17.54;75.36;94992.75;5105388;28;20208;-77
2023/08/14 03:51:40;;;;;;;62.45;25.70;;;;;;;18.26;72.65;94983.84;5091075;28;20249;-76
2023/08/14 03:54:07;;;;;;;7.07;4.55;;;;;;;18.99;70.24;94994.38;5100480;28;20205;-76
2023/08/14 03:56:33;;;;;;;7.13;3.90;;;;;;;19.58;68.05;94986.47;5103865;28;20565;-76
2023/08/14 03:59:02;;;;;;;4.60;4.00;;;;;;;20.24;65.92;94980.03;5104674;28;20202;-77
2023/08/14 04:01:29;;;;;;;6.60;4.05;;;;;;;20.88;63.24;94986.03;5092603;28;20293;-77
2023/08/14 04:03:56;;;;;;;6.65;4.05;;;;;;;21.55;61.08;94977.31;5101942;28;20198;-77
2023/08/14 04:06:23;;;;;;;4.85;3.42;;;;;;;21.90;60.04;94979.38;5106014;28;20208;-76
2023/08/14 04:08:50;;;;;;;10.40;3.88;;;;;;;22.25;58.28;94978.66;5108706;28;20194;-76
2023/08/14 04:11:17;;;;;;;5.20;3.38;;;;;;;22.68;57.33;94977.47;5109713;28;20208;-76
2023/08/14 04:13:43;;;;;;;6.63;4.10;;;;;;;23.22;55.66;94969.88;5104571;28;20210;-77
2023/08/14 04:16:12;;;;;;;8.68;4.90;;;;;;;23.80;53.18;94965.66;5110482;28;20232;-77
2023/08/14 04:18:39;;;;;;;7.40;4.30;;;;;;;24.26;51.87;94972.91;5099680;28;20214;-76
2023/08/14 04:21:06;;;;;;;6.65;4.57;;;;;;;24.73;50.77;94982.44;5101476;28;20550;-76
2023/08/14 04:23:32;;;;;;;5.70;4.22;;;;;;;25.23;49.74;94984.72;5110902;28;20208;-76
2023/08/14 04:25:59;;;;;;;7.18;4.85;;;;;;;25.49;48.64;94982.03;5100553;28;21254;-77
2023/08/14 04:28:26;;;;;;;10.13;4.90;;;;;;;25.59;48.88;94990.63;5103691;28;20209;-77
2023/08/14 04:30:53;;;;;;;6.63;5.20;;;;;;;25.77;47.61;94992.03;5107125;28;20201;-77
2023/08/14 04:33:21;;;;;;;5.50;4.38;;;;;;;26.46;46.89;94989.88;5104830;28;20202;-77
2023/08/14 04:35:48;;;;;;;8.65;4.53;;;;;;;27.18;45.06;94987.47;5097827;28;20646;-76
2023/08/14 04:38:15;;;;;;;5.18;4.55;;;;;;;27.63;43.74;94984.22;5106520;28;20206;-77
2023/08/14 04:40:41;;;;;;;8.10;4.93;;;;;;;27.97;42.92;94995.06;5112170;28;20214;-77
2023/08/14 04:43:08;;;;;;;7.00;4.50;;;;;;;28.61;41.17;94988.81;5107155;28;20199;-76
2023/08/14 04:45:35;;;;;;;9.38;4.60;;;;;;;28.91;40.46;94988.50;5100543;28;20337;-77
2023/08/14 04:48:02;;;;;;;6.85;4.95;;;;;;;28.87;40.52;94990.59;5111569;28;20202;-77
2023/08/14 04:50:30;;;;;;;9.35;4.75;;;;;;;29.12;39.66;94989.16;5112251;28;20206;-76
2023/08/14 04:52:57;;;;;;;6.53;4.43;;;;;;;27.88;41.28;94998.44;5101452;28;20212;-76
2023/08/14 04:55:24;;;;;;;5.38;4.68;;;;;;;28.62;40.50;94995.97;5111549;28;20221;-76
2023/08/14 04:57:51;;;;;;;6.28;4.82;;;;;;;28.62;39.74;95007.91;5112161;28;20276;-76
2023/08/14 05:00:18;;;;;;;5.10;4.53;;;;;;;28.53;40.50;94993.03;5111961;28;20212;-77
2023/08/14 05:02:45;;;;;;;6.45;4.93;;;;;;;29.58;39.12;94993.53;5112375;28;20200;-76
2023/08/14 05:05:12;;;;;;;7.07;4.70;;;;;;;30.09;37.59;95000.03;5111617;28;20227;-76
2023/08/14 05:07:40;;;;;;;5.75;4.40;;;;;;;30.07;37.63;94996.91;5111879;28;20662;-76
2023/08/14 05:10:08;;;;;;;9.05;4.78;;;;;;;30.24;37.22;95006.00;5112736;28;20542;-75
2023/08/14 05:12:34;;;;;;;5.25;4.70;;;;;;;30.54;36.65;94999.09;5104127;28;20194;-76
2023/08/14 05:15:01;;;;;;;6.47;4.38;;;;;;;30.36;35.65;95014.38;5111879;28;20551;-76
2023/08/14 05:17:28;;;;;;;7.53;4.47;;;;;;;30.51;36.15;95014.72;5111615;28;20244;-76
2023/08/14 05:19:55;;;;;;;5.13;4.30;;;;;;;30.55;35.61;95003.47;5111640;28;20198;-76
2023/08/14 05:22:22;;;;;;;5.57;4.30;;;;;;;32.18;33.75;95003.41;5111446;28;20208;-76
2023/08/14 05:24:50;;;;;;;6.30;4.43;;;;;;;31.97;34.26;94995.81;5112089;27;20295;-77
2023/08/14 05:27:17;;;;;;;6.07;4.18;;;;;;;30.84;34.87;95004.13;5122024;27;20209;-77
2023/08/14 05:29:46;;;;;;;6.40;4.68;;;;;;;30.52;35.90;95004.31;5115603;27;20202;-75
2023/08/14 05:32:13;;;;;;;6.07;4.60;;;;;;;31.03;35.23;95005.84;5118568;27;20201;-76
2023/08/14 05:34:40;;;;;;;7.88;4.97;;;;;;;32.04;34.86;95007.53;5115560;27;20209;-76
2023/08/14 06:20:53;;;;;;;6.20;3.30;;;;;;;32.39;32.80;95018.66;5111456;28;20197;-81
2023/08/14 06:23:20;;;;;;;6.10;3.50;;;;;;;32.24;33.19;95015.63;5111708;28;20213;-80
2023/08/14 06:25:47;;;;;;;6.95;3.95;;;;;;;33.18;32.03;94997.41;5111056;28;20245;-80
2023/08/14 06:28:13;;;;;;;5.53;3.63;;;;;;;33.97;31.75;95008.88;5111252;28;20213;-80
2023/08/14 06:30:40;;;;;;;6.90;3.85;;;;;;;32.83;31.39;95013.72;5111335;28;20221;-80
2023/08/14 06:33:07;;;;;;;4.60;3.33;;;;;;;34.07;30.23;95013.22;5111433;28;20213;-81
2023/08/14 06:35:34;;;;;;;5.50;3.17;;;;;;;33.94;30.18;95010.59;5111294;28;20229;-76
2023/08/14 06:38:02;;;;;;;3.88;3.13;;;;;;;34.54;31.54;95002.19;5110157;28;20341;-76
2023/08/14 06:40:29;;;;;;;5.43;3.05;;;;;;;34.18;30.01;95002.25;5110726;28;20320;-77
2023/08/14 06:42:56;;;;;;;6.78;3.67;;;;;;;33.32;31.46;95004.50;5111304;28;20285;-76
2023/08/14 06:45:23;;;;;;;5.40;3.72;;;;;;;32.73;31.09;95007.28;5111268;28;20212;-77
2023/08/14 06:47:50;;;;;;;5.18;3.15;;;;;;;32.84;30.88;95018.06;5110531;28;20212;-76
2023/08/14 06:50:17;;;;;;;6.10;3.92;;;;;;;32.65;31.41;95019.25;5110845;28;20505;-80
2023/08/14 06:52:44;;;;;;;5.65;3.40;;;;;;;32.32;31.89;95014.09;5110553;28;20205;-79
2023/08/14 06:55:12;;;;;;;5.22;3.13;;;;;;;31.98;31.79;95017.00;5110723;28;20229;-80
2023/08/14 06:57:39;;;;;;;5.70;3.10;;;;;;;31.73;32.49;95017.88;5096675;28;20214;-77
2023/08/14 07:00:12;;;;;;;4.07;3.30;;;;;;;32.18;32.25;95020.22;5105872;27;20565;-80
2023/08/14 07:02:39;;;;;;;4.05;3.05;;;;;;;32.43;31.90;95024.91;5110629;28;20271;-80
2023/08/14 07:05:06;;;;;;;5.20;3.42;;;;;;;32.27;32.65;95023.09;5109507;28;20201;-80
2023/08/14 07:07:33;;;;;;;7.95;3.63;;;;;;;32.53;31.53;95028.53;5107949;28;20201;-80
2023/08/14 07:10:00;;;;;;;4.55;3.15;;;;;;;33.50;30.34;95021.34;5107259;28;20209;-80
2023/08/14 07:12:28;;;;;;;5.60;3.35;;;;;;;30.75;34.26;95026.41;5108572;27;20209;-79
2023/08/14 07:14:55;;;;;;;7.68;3.35;;;;;;;30.23;34.46;95033.16;5108037;27;20570;-81
2023/08/14 07:17:22;;;;;;;4.43;3.17;;;;;;;30.70;34.38;95026.97;5107344;28;20306;-79
2023/08/14 07:19:49;;;;;;;5.63;3.60;;;;;;;31.34;33.00;95024.84;5108255;27;20212;-79
2023/08/14 07:22:15;;;;;;;5.00;3.00;;;;;;;30.80;32.59;95023.03;5109294;28;20201;-81
2023/08/14 07:24:43;;;;;;;5.07;2.88;;;;;;;30.16;32.81;95022.19;5101838;28;20234;-78
2023/08/14 07:27:10;;;;;;;4.28;2.97;;;;;;;31.46;32.44;95018.41;5109806;28;20654;-81
2023/08/14 07:29:38;;;;;;;3.75;2.47;;;;;;;30.63;32.35;95043.94;5110196;28;20209;-79
2023/08/14 07:32:05;;;;;;;3.85;2.90;;;;;;;30.50;32.83;95029.16;5110143;28;20217;-81
2023/08/14 07:34:32;;;;;;;3.75;2.75;;;;;;;29.57;34.59;95043.00;5110614;28;20308;-80
2023/08/14 07:36:59;;;;;;;3.80;2.72;;;;;;;30.37;34.13;95027.13;5110123;28;20322;-80
2023/08/14 07:39:26;;;;;;;3.63;2.90;;;;;;;29.53;34.96;95030.34;5110980;28;20209;-80
2023/08/14 07:41:53;;;;;;;3.95;2.88;;;;;;;30.29;34.41;95022.22;5109968;28;20210;-80
2023/08/14 07:44:20;;;;;;;8.77;3.10;;;;;;;30.32;33.51;95029.72;5110376;28;20294;-81
2023/08/14 07:46:48;;;;;;;4.82;2.92;;;;;;;29.14;35.08;95032.16;5110004;28;20205;-80
2023/08/14 07:49:15;;;;;;;6.32;3.42;;;;;;;28.52;35.97;95030.47;5109734;28;20205;-80
2023/08/14 07:51:41;;;;;;;4.80;3.00;;;;;;;27.69;37.56;95030.66;5109232;28;21156;-78
2023/08/14 07:54:08;;;;;;;4.35;2.50;;;;;;;27.39;37.66;95033.59;5109959;28;20202;-78
2023/08/14 07:56:35;;;;;;;4.22;2.53;;;;;;;27.26;38.20;95030.66;5111471;28;20291;-80
2023/08/14 07:59:02;;;;;;;5.18;2.90;;;;;;;27.20;38.34;95029.53;5104021;28;20202;-80
2023/08/14 08:01:29;;;;;;;3.90;2.95;;;;;;;26.97;39.58;95035.13;5109712;27;20205;-78
2023/08/14 08:03:57;;;;;;;5.60;2.92;;;;;;;26.68;39.90;95032.78;5109604;27;20229;-79
2023/08/14 08:06:25;;;;;;;5.05;3.00;;;;;;;27.56;39.17;95033.28;5113812;28;20220;-78
2023/08/14 08:08:52;;;;;;;6.88;2.78;;;;;;;27.29;38.15;95040.94;5112959;28;20210;-79
2023/08/14 08:11:19;;;;;;;4.43;2.95;;;;;;;27.25;38.38;95034.63;5113020;28;20198;-79
2023/08/14 08:13:45;;;;;;;5.57;3.15;;;;;;;27.70;38.62;95032.22;5103550;28;20608;-81
2023/08/14 08:16:12;;;;;;;5.07;3.20;;;;;;;27.97;38.04;95034.06;5112390;28;20233;-80
2023/08/14 08:18:39;;;;;;;4.05;3.10;;;;;;;27.56;36.87;95033.28;5106416;28;20606;-80
2023/08/14 08:21:07;;;;;;;4.00;3.00;;;;;;;26.96;38.58;95039.13;5113640;28;20201;-77
2023/08/14 08:23:34;;;;;;;5.60;3.10;;;;;;;26.76;39.09;95036.25;5110982;28;20678;-79
2023/08/14 08:26:01;;;;;;;4.10;2.55;;;;;;;27.45;38.68;95027.13;5108901;28;20340;-77
2023/08/14 08:28:28;;;;;;;7.70;3.28;;;;;;;28.73;37.66;95007.66;5101689;28;20255;-79
2023/08/14 08:30:55;;;;;;;5.40;3.22;;;;;;;29.10;36.60;95013.94;5113200;28;20289;-82
2023/08/14 08:33:22;;;;;;;4.22;2.75;;;;;;;29.08;35.36;95010.81;5111667;28;20205;-80
2023/08/14 08:35:48;;;;;;;5.50;2.80;;;;;;;28.66;35.53;95016.19;5110773;28;20233;-78
2023/08/14 08:38:18;;;;;;;3.45;2.50;;;;;;;27.71;37.15;95028.22;5112373;28;20202;-80
2023/08/14 08:40:48;;;;;;;2.88;2.55;;;;;;;27.64;37.50;95016.44;5111129;28;20198;-80
2023/08/14 08:43:15;;;;;;;3.25;2.75;;;;;;;27.02;39.04;95023.53;5113281;28;20283;-75
2023/08/14 08:45:49;;;;;;;5.88;2.83;;;;;;;26.79;39.16;95019.50;5097410;28;20261;-79
2023/08/14 08:48:21;;;;;;;3.55;2.90;;;;;;;27.25;38.13;95023.50;5093064;28;20685;-76
2023/08/14 08:50:50;;;;;;;4.00;2.80;;;;;;;26.92;38.23;95024.47;5097030;28;20206;-73
2023/08/14 08:53:20;;;;;;;3.95;2.80;;;;;;;26.36;39.55;95030.53;5113733;27;20232;-74
2023/08/14 08:55:47;;;;;;;3.42;2.92;;;;;;;26.63;38.99;95019.38;5115044;27;20293;-74
2023/08/14 08:58:16;;;;;;;4.65;3.13;;;;;;;25.99;39.75;95027.81;5099184;28;20202;-75
2023/08/14 09:00:44;;;;;;;4.15;2.78;;;;;;;26.59;40.71;95015.09;5110465;28;20233;-75
2023/08/14 09:03:12;;;;;;;5.30;3.17;;;;;;;26.36;40.39;95007.50;5107262;28;20206;-74
2023/08/14 09:05:40;;;;;;;4.07;2.80;;;;;;;26.37;39.85;95009.88;5115017;27;20228;-75
2023/08/14 09:08:08;;;;;;;5.22;2.78;;;;;;;27.27;39.60;95004.38;5119784;27;20293;-75
2023/08/14 09:10:37;;;;;;;3.47;2.50;;;;;;;27.20;37.65;95004.50;5103115;28;20605;-75
2023/08/14 09:13:05;;;;;;;5.68;2.92;;;;;;;26.84;37.70;94999.56;5106894;28;20208;-76
2023/08/14 09:15:32;;;;;;;4.55;2.72;;;;;;;26.87;37.18;95001.50;5103686;28;20206;-77
2023/08/14 09:17:59;;;;;;;4.32;2.42;;;;;;;26.55;37.38;95009.56;5110817;28;20222;-77
2023/08/14 09:20:26;;;;;;;2.60;2.40;;;;;;;26.56;38.58;95005.59;5116040;27;20217;-75
2023/08/14 09:22:58;;;;;;;7.13;2.85;;;;;;;26.40;38.84;95005.44;5105704;28;20225;-74
2023/08/14 09:25:25;;;;;;;3.08;2.50;;;;;;;26.44;38.79;95003.41;5105896;28;20262;-74
2023/08/14 09:27:54;;;;;;;3.63;2.80;;;;;;;26.62;38.65;95003.91;5104569;28;20251;-75
2023/08/14 09:30:24;;;;;;;4.25;2.38;;;;;;;26.45;39.58;94993.84;5109313;28;20280;-75
2023/08/14 09:32:51;;;;;;;4.00;2.63;;;;;;;26.51;38.87;95000.53;5112278;28;20210;-75
2023/08/14 09:35:18;;;;;;;3.67;2.85;;;;;;;26.65;39.12;94986.38;5104772;28;20193;-76
2023/08/14 09:37:47;;;;;;;4.53;2.70;;;;;;;26.83;38.73;94986.06;5112252;28;20241;-76
2023/08/14 09:40:16;;;;;;;3.83;2.90;;;;;;;26.89;38.94;94987.97;5109763;28;20209;-76
2023/08/14 09:42:43;;;;;;;4.03;2.50;;;;;;;27.25;37.21;94979.78;5107857;28;20236;-75
2023/08/14 09:45:13;;;;;;;3.28;2.63;;;;;;;26.97;38.59;94985.84;5108105;28;20568;-75
2023/08/14 09:47:42;;;;;;;4.20;2.60;;;;;;;27.31;38.00;94974.50;5109414;28;20217;-75
2023/08/14 09:50:09;;;;;;;4.50;2.45;;;;;;;27.63;36.81;94981.44;5100466;28;20256;-75
2023/08/14 09:52:36;;;;;;;4.35;2.78;;;;;;;27.99;35.78;94973.94;5112190;28;20198;-75
2023/08/14 09:55:05;;;;;;;5.75;2.65;;;;;;;28.40;36.04;94961.47;5111856;28;20573;-76
2023/08/14 09:57:33;;;;;;;6.97;2.72;;;;;;;28.73;36.41;94957.44;5103013;28;20233;-75
2023/08/14 10:00:00;;;;;;;3.30;2.53;;;;;;;28.01;36.19;94981.84;5111633;28;20225;-74
2023/08/14 10:02:32;;;;;;;5.47;3.20;;;;;;;27.76;37.62;94962.88;5111845;28;20209;-75
2023/08/14 10:05:00;;;;;;;4.68;2.72;;;;;;;28.36;36.37;94953.19;5109958;28;20197;-75
2023/08/14 10:07:28;;;;;;;3.88;2.55;;;;;;;28.29;35.90;94956.91;5120559;27;20311;-75
2023/08/14 10:09:57;;;;;;;5.25;3.10;;;;;;;27.56;37.38;94960.91;5111225;28;20689;-76
2023/08/14 10:12:29;;;;;;;5.25;2.80;;;;;;;27.76;37.41;94952.53;5107851;28;20608;-75
2023/08/14 10:15:05;;;;;;;7.18;2.92;;;;;;;28.01;36.55;94952.00;5088144;28;20193;-75
2023/08/14 10:17:37;;;;;;;6.55;3.10;;;;;;;27.50;37.59;94957.00;5097171;28;20225;-74
2023/08/14 10:20:06;;;;;;;4.38;2.65;;;;;;;28.05;36.17;94941.53;5099582;27;20598;-75
2023/08/14 10:22:34;;;;;;;3.33;2.70;;;;;;;28.44;35.87;94940.63;5081636;28;20583;-75
2023/08/14 10:25:04;;;;;;;3.65;2.78;;;;;;;27.92;37.09;94943.44;5109266;28;20328;-75
2023/08/14 10:27:31;;;;;;;4.45;2.97;;;;;;;28.51;37.72;94936.91;5111114;28;20198;-75
2023/08/14 10:29:59;;;;;;;3.53;2.75;;;;;;;28.36;36.23;94947.63;5110552;28;20220;-74
2023/08/14 10:32:28;;;;;;;3.83;3.03;;;;;;;28.05;37.23;94935.97;5106739;27;20194;-74
2023/08/14 10:35:06;;;;;;;3.47;2.72;;;;;;;28.19;36.48;94935.66;5053017;27;2316347;-76
2023/08/14 10:37:43;;;;;;;4.75;2.58;;;;;;;28.33;36.44;94933.75;5142160;27;20208;-75
2023/08/14 10:40:17;;;;;;;2.80;2.50;;;;;;;27.89;36.53;94941.50;5148734;27;20204;-75
2023/08/14 10:42:48;;;;;;;2.80;2.60;;;;;;;28.19;37.13;94930.09;5131735;27;20200;-75
2023/08/14 10:45:18;;;;;;;4.47;2.60;;;;;;;28.13;37.90;94915.09;5132939;27;20197;-76
2023/08/14 10:47:45;;;;;;;3.35;2.70;;;;;;;28.40;37.11;94928.03;5148687;27;20283;-75
2023/08/14 10:50:20;;;;;;;3.65;2.72;;;;;;;27.86;37.78;94929.25;5137487;27;20205;-75
2023/08/14 10:52:48;;;;;;;4.90;2.85;;;;;;;27.43;38.56;94928.56;5132317;27;20816;-76
2023/08/14 10:55:17;;;;;;;3.15;2.60;;;;;;;28.04;38.07;94922.47;5136728;27;20204;-76
2023/08/14 10:57:45;;;;;;;5.60;3.00;;;;;;;28.13;37.26;94920.66;5133461;27;20243;-76
2023/08/14 11:00:23;;;;;;;3.53;2.67;;;;;;;27.80;37.92;94924.59;5135196;27;20202;-75
2023/08/14 11:02:51;;;;;;;3.33;2.88;;;;;;;28.27;37.43;94931.50;5137921;27;20301;-75
2023/08/14 11:05:19;;;;;;;3.67;2.80;;;;;;;27.97;38.68;94929.00;5133287;27;20668;-75
2023/08/14 11:08:00;;;;;;;4.03;2.80;;;;;;;27.92;38.01;94924.72;5142674;27;20204;-75
2023/08/14 11:10:28;;;;;;;3.45;2.80;;;;;;;27.71;39.42;94921.63;5136346;27;20260;-76
2023/08/14 11:12:57;;;;;;;3.65;2.92;;;;;;;28.07;38.13;94922.38;5127568;27;20193;-77
2023/08/14 11:15:25;;;;;;;3.42;3.05;;;;;;;27.91;37.46;94925.16;5142165;27;20209;-74
2023/08/14 11:17:51;;;;;;;4.28;2.92;;;;;;;28.15;37.19;94912.66;5141405;27;20567;-76
2023/08/14 11:20:20;;;;;;;2.60;2.40;;;;;;;28.24;37.74;94903.72;5140268;27;20209;-75
2023/08/14 11:22:47;;;;;;;3.67;2.70;;;;;;;29.08;36.29;94905.56;5137313;27;20205;-75
2023/08/14 11:25:16;;;;;;;6.32;2.83;;;;;;;29.46;35.66;94902.91;5113481;27;20237;-75
2023/08/14 11:27:48;;;;;;;5.72;3.35;;;;;;;28.89;37.20;94901.69;5117750;28;20296;-76
2023/08/14 11:30:15;;;;;;;3.47;2.88;;;;;;;28.92;37.54;94903.59;5115029;28;20200;-76
2023/08/14 11:32:42;;;;;;;4.75;3.35;;;;;;;29.09;36.22;94901.56;5109776;28;20646;-74
2023/08/14 11:35:11;;;;;;;5.68;3.05;;;;;;;29.09;36.58;94890.38;5126966;28;20577;-75
2023/08/14 11:37:40;;;;;;;6.30;2.97;;;;;;;28.56;37.25;94898.16;5126574;28;20321;-77
2023/08/14 11:40:10;;;;;;;5.13;3.00;;;;;;;28.88;37.26;94891.75;5126526;28;20258;-77
2023/08/14 11:42:39;;;;;;;3.33;2.97;;;;;;;28.80;37.40;94895.94;5127188;28;20209;-77
2023/08/14 11:45:07;;;;;;;5.13;2.95;;;;;;;28.74;38.31;94892.09;5102595;28;20218;-77
2023/08/14 11:47:37;;;;;;;3.40;3.05;;;;;;;28.43;37.67;94904.88;5107870;28;20202;-78
2023/08/14 11:50:04;;;;;;;4.03;2.83;;;;;;;28.03;39.09;94899.41;5093698;28;20217;-77
2023/08/14 11:52:32;;;;;;;4.82;3.00;;;;;;;28.37;37.97;94887.09;5107540;28;20208;-78
2023/08/14 11:55:01;;;;;;;3.47;3.05;;;;;;;28.18;38.46;94894.28;5106571;28;20214;-77
2023/08/14 11:57:30;;;;;;;7.50;2.97;;;;;;;28.00;38.74;94885.56;5112760;28;20572;-76
2023/08/14 11:59:58;;;;;;;4.00;2.85;;;;;;;28.32;38.93;94887.59;5101532;28;20217;-77
2023/08/14 12:02:25;;;;;;;3.85;3.00;;;;;;;28.49;37.81;94886.38;5107692;28;20576;-75
2023/08/14 12:04:56;;;;;;;3.00;2.70;;;;;;;28.15;38.37;94886.81;5095323;28;20256;-73
2023/08/14 12:07:25;;;;;;;3.08;2.70;;;;;;;28.20;38.21;94887.09;5099286;28;20232;-75
2023/08/14 12:09:54;;;;;;;5.97;3.08;;;;;;;28.16;38.84;94869.63;5111909;28;20213;-75
2023/08/14 12:12:23;;;;;;;3.30;3.00;;;;;;;28.11;39.33;94875.75;5108150;28;20201;-75
2023/08/14 12:14:51;;;;;;;3.38;2.92;;;;;;;27.77;38.92;94887.25;5107951;28;20250;-75
2023/08/14 12:17:19;;;;;;;3.13;2.67;;;;;;;27.89;39.37;94878.22;5112870;28;20317;-74
2023/08/14 12:19:50;;;;;;;3.72;3.13;;;;;;;28.12;38.66;94868.16;5106887;28;20210;-75
2023/08/14 12:22:20;;;;;;;4.68;3.00;;;;;;;28.00;38.73;94869.66;5102162;28;20190;-75